createdAt,value
2023-03-01T00:02:08.187Z,76.17
2023-03-01T00:04:36.828Z,76.13
2023-03-01T00:07:03.643Z,72.70
2023-03-01T00:09:30.520Z,73.90
2023-03-01T00:11:57.321Z,77.37
2023-03-01T00:14:24.918Z,78.13
2023-03-01T00:16:51.737Z,75.93
2023-03-01T00:19:19.521Z,72.90
2023-03-01T00:21:46.336Z,77.27
2023-03-01T00:24:13.993Z,77.10
2023-03-01T00:26:40.839Z,74.23
2023-03-01T00:29:08.308Z,82.83
2023-03-01T00:31:35.343Z,77.57
2023-03-01T00:34:03.955Z,78.20
2023-03-01T00:36:32.629Z,77.50
2023-03-01T00:39:00.257Z,73.07
2023-03-01T00:41:29.974Z,71.83
2023-03-01T00:43:57.672Z,74.90
2023-03-01T00:46:26.141Z,71.73
2023-03-01T00:48:53.184Z,77.27
2023-03-01T00:51:27.129Z,74.80
2023-03-01T00:53:55.049Z,75.70
2023-03-01T00:56:22.348Z,69.00
2023-03-01T00:58:49.399Z,76.27
2023-03-01T01:01:18.582Z,74.80
2023-03-01T01:03:50.102Z,82.83
2023-03-01T01:06:18.119Z,77.53
2023-03-01T01:08:44.957Z,82.93
2023-03-01T01:11:12.665Z,86.83
2023-03-01T01:13:40.048Z,91.33
2023-03-01T01:16:08.064Z,77.97
2023-03-01T01:18:34.991Z,85.80
2023-03-01T01:21:05.593Z,74.37
2023-03-01T01:23:32.517Z,81.83
2023-03-01T01:26:04.623Z,76.40
2023-03-01T01:28:31.523Z,83.00
2023-03-01T01:30:58.308Z,81.47
2023-03-01T01:33:25.168Z,78.10
2023-03-01T01:35:52.011Z,84.60
2023-03-01T01:38:19.181Z,81.87
2023-03-01T01:40:46.455Z,65.50
2023-03-01T01:43:24.560Z,74.47
2023-03-01T01:45:51.692Z,74.20
2023-03-01T01:48:21.695Z,70.97
2023-03-01T01:50:52.647Z,75.07
2023-03-01T01:53:20.292Z,85.20
2023-03-01T01:55:48.625Z,86.20
2023-03-01T01:58:17.163Z,85.43
2023-03-01T02:00:44.008Z,77.00
2023-03-01T02:03:12.715Z,85.63
2023-03-01T02:05:44.500Z,71.50
2023-03-01T02:08:12.755Z,77.17
2023-03-01T02:10:39.676Z,82.13
2023-03-01T02:13:06.678Z,81.17
2023-03-01T02:15:37.250Z,73.80
2023-03-01T02:18:04.795Z,75.00
2023-03-01T02:20:34.622Z,74.73
2023-03-01T02:23:01.926Z,73.00
2023-03-01T02:25:28.728Z,63.80
2023-03-01T02:28:14.501Z,68.90
2023-03-01T02:31:01.962Z,70.17
2023-03-01T02:33:29.939Z,68.60
2023-03-01T02:35:57.073Z,70.67
2023-03-01T02:38:24.101Z,59.07
2023-03-01T02:40:52.442Z,64.37
2023-03-01T02:43:20.838Z,62.77
2023-03-01T02:45:51.864Z,70.17
2023-03-01T02:48:19.121Z,71.40
2023-03-01T02:50:45.945Z,68.73
2023-03-01T02:53:17.211Z,67.93
2023-03-01T02:55:44.393Z,67.00
2023-03-01T02:58:11.558Z,66.27
2023-03-01T03:00:46.626Z,73.90
2023-03-01T03:03:16.366Z,70.77
2023-03-01T03:05:43.400Z,64.63
2023-03-01T03:08:10.506Z,66.93
2023-03-01T03:10:38.993Z,66.10
2023-03-01T03:13:08.218Z,68.63
2023-03-01T03:15:39.581Z,67.90
2023-03-01T03:18:08.163Z,77.67
2023-03-01T03:20:35.096Z,74.63
2023-03-01T03:23:02.071Z,81.83
2023-03-01T03:25:29.589Z,79.27
2023-03-01T03:27:59.397Z,86.07
2023-03-01T03:30:27.683Z,117.23
2023-03-01T03:32:54.891Z,91.07
2023-03-01T03:35:25.994Z,102.53
2023-03-01T03:38:05.132Z,118.97
2023-03-01T03:40:34.275Z,112.90
2023-03-01T03:43:01.266Z,106.33
2023-03-01T03:45:28.100Z,88.30
2023-03-01T03:47:54.906Z,115.00
2023-03-01T03:50:22.390Z,91.70
2023-03-01T03:52:49.158Z,83.13
2023-03-01T03:55:20.407Z,80.63
2023-03-01T03:57:55.208Z,88.97
2023-03-01T04:00:22.963Z,95.37
2023-03-01T04:02:50.076Z,92.50
2023-03-01T04:05:17.577Z,99.73
2023-03-01T04:07:44.808Z,92.57
2023-03-01T04:10:12.929Z,104.00
2023-03-01T04:12:39.775Z,122.93
2023-03-01T04:15:14.224Z,130.60
2023-03-01T04:17:44.973Z,146.47
2023-03-01T04:20:13.572Z,162.40
2023-03-01T04:22:41.145Z,162.20
2023-03-01T04:25:08.297Z,157.57
2023-03-01T04:27:35.416Z,138.50
2023-03-01T04:30:02.500Z,135.97
2023-03-01T04:32:29.355Z,110.83
2023-03-01T04:34:56.250Z,98.30
2023-03-01T04:37:23.272Z,108.77
2023-03-01T04:39:50.002Z,119.80
2023-03-01T04:42:17.836Z,92.67
2023-03-01T04:44:45.012Z,89.80
2023-03-01T04:47:12.197Z,86.43
2023-03-01T04:49:38.933Z,79.37
2023-03-01T04:52:05.991Z,85.00
2023-03-01T04:54:34.262Z,80.27
2023-03-01T04:57:02.429Z,97.70
2023-03-01T04:59:30.062Z,95.10
2023-03-01T05:01:57.273Z,109.13
2023-03-01T05:04:24.721Z,73.97
2023-03-01T05:06:51.964Z,76.03
2023-03-01T05:09:18.704Z,69.70
2023-03-01T05:11:45.755Z,80.30
2023-03-01T05:14:12.583Z,68.20
2023-03-01T05:16:39.408Z,74.53
2023-03-01T05:19:12.775Z,67.93
2023-03-01T05:22:02.464Z,89.03
2023-03-01T05:24:29.993Z,74.10
2023-03-01T05:26:56.946Z,69.87
2023-03-01T05:29:27.802Z,88.53
2023-03-01T05:31:55.589Z,188.83
2023-03-01T05:34:33.666Z,99.63
2023-03-01T05:37:00.514Z,93.93
2023-03-01T05:39:27.935Z,94.93
2023-03-01T05:41:55.757Z,95.80
2023-03-01T05:44:23.290Z,99.80
2023-03-01T05:46:50.656Z,89.40
2023-03-01T05:49:17.420Z,91.00
2023-03-01T05:51:48.176Z,90.83
2023-03-01T05:54:15.069Z,91.73
2023-03-01T05:56:41.973Z,91.97
2023-03-01T05:59:08.768Z,88.00
2023-03-01T06:01:36.114Z,95.57
2023-03-01T06:04:03.335Z,92.53
2023-03-01T06:06:31.031Z,99.03
2023-03-01T06:08:58.068Z,97.03
2023-03-01T06:11:24.948Z,104.50
2023-03-01T06:13:51.894Z,127.67
2023-03-01T06:16:18.673Z,107.20
2023-03-01T06:18:45.574Z,105.57
2023-03-01T06:21:12.492Z,110.33
2023-03-01T06:23:39.533Z,101.60
2023-03-01T06:26:07.404Z,102.93
2023-03-01T06:28:34.222Z,102.57
2023-03-01T06:31:01.034Z,101.10
2023-03-01T06:33:27.854Z,103.47
2023-03-01T06:35:57.853Z,104.83
2023-03-01T06:38:25.360Z,100.07
2023-03-01T06:40:55.933Z,106.33
2023-03-01T06:43:22.912Z,97.87
2023-03-01T06:45:49.649Z,104.03
2023-03-01T06:48:16.575Z,100.80
2023-03-01T06:50:43.386Z,111.67
2023-03-01T06:53:10.353Z,113.53
2023-03-01T06:55:37.550Z,95.67
2023-03-01T06:58:04.521Z,105.17
2023-03-01T07:00:31.853Z,101.03
2023-03-01T07:03:03.177Z,94.97
2023-03-01T07:05:30.731Z,103.43
2023-03-01T07:07:58.762Z,89.23
2023-03-01T07:10:25.664Z,85.13
2023-03-01T07:12:55.270Z,92.50
2023-03-01T07:15:22.168Z,84.43
2023-03-01T07:17:51.138Z,81.03
2023-03-01T07:20:18.914Z,79.23
2023-03-01T07:22:45.767Z,83.50
2023-03-01T07:25:12.694Z,79.57
2023-03-01T07:27:39.593Z,83.90
2023-03-01T07:30:06.892Z,101.30
2023-03-01T07:32:33.806Z,150.97
2023-03-01T07:35:00.722Z,76.13
2023-03-01T07:37:27.554Z,78.13
2023-03-01T07:39:54.440Z,78.70
2023-03-01T07:42:21.261Z,80.47
2023-03-01T07:44:48.082Z,79.87
2023-03-01T07:47:15.312Z,71.63
2023-03-01T07:49:42.385Z,73.03
2023-03-01T07:52:10.921Z,69.13
2023-03-01T07:54:37.663Z,68.30
2023-03-01T07:57:04.641Z,73.70
2023-03-01T07:59:31.446Z,68.03
2023-03-01T08:01:58.549Z,69.33
2023-03-01T08:04:28.692Z,63.10
2023-03-01T08:06:56.004Z,68.87
2023-03-01T08:09:23.382Z,64.87
2023-03-01T08:11:50.385Z,64.60
2023-03-01T08:14:17.312Z,68.90
2023-03-01T08:16:44.352Z,71.30
2023-03-01T08:19:12.034Z,64.33
2023-03-01T08:21:39.307Z,65.37
2023-03-01T08:24:07.080Z,63.00
2023-03-01T08:26:34.165Z,65.13
2023-03-01T08:29:01.585Z,65.43
2023-03-01T08:31:38.848Z,65.03
2023-03-01T08:34:07.479Z,62.20
2023-03-01T08:36:36.544Z,60.83
2023-03-01T08:39:03.611Z,64.43
2023-03-01T08:41:31.140Z,60.58
2023-03-01T08:44:00.101Z,60.20
2023-03-01T08:46:31.434Z,62.83
2023-03-01T08:48:58.424Z,64.63
2023-03-01T08:51:26.008Z,61.17
2023-03-01T08:53:53.182Z,47.63
2023-03-01T08:56:20.659Z,44.90
2023-03-01T08:58:48.220Z,37.57
2023-03-01T09:01:16.777Z,40.10
2023-03-01T09:03:44.057Z,40.17
2023-03-01T09:06:11.962Z,40.57
2023-03-01T09:08:39.746Z,36.40
2023-03-01T09:11:07.268Z,35.57
2023-03-01T09:13:34.326Z,36.03
2023-03-01T09:16:05.572Z,42.17
2023-03-01T09:18:33.085Z,100.63
2023-03-01T09:21:04.964Z,34.33
2023-03-01T09:23:31.719Z,36.40
2023-03-01T09:25:58.872Z,38.70
2023-03-01T09:28:30.143Z,44.20
2023-03-01T09:31:01.033Z,39.53
2023-03-01T09:33:28.405Z,37.13
2023-03-01T09:36:02.332Z,42.63
2023-03-01T09:38:29.307Z,40.47
2023-03-01T09:40:56.180Z,45.30
2023-03-01T09:43:27.105Z,44.50
2023-03-01T09:45:55.194Z,43.13
2023-03-01T09:48:25.097Z,44.57
2023-03-01T09:50:52.434Z,49.03
2023-03-01T09:53:20.727Z,47.27
2023-03-01T09:56:00.180Z,43.37
2023-03-01T09:58:45.947Z,41.63
2023-03-01T10:01:15.740Z,51.90
2023-03-01T10:03:54.884Z,38.57
2023-03-01T10:06:34.473Z,39.90
2023-03-01T10:09:04.289Z,47.00
2023-03-01T10:11:39.367Z,41.83
2023-03-01T10:14:25.739Z,40.53
2023-03-01T10:17:00.022Z,39.37
2023-03-01T10:19:32.982Z,40.13
2023-03-01T10:22:04.582Z,41.10
2023-03-01T10:24:33.695Z,44.70
2023-03-01T10:27:04.416Z,43.20
2023-03-01T10:29:33.151Z,41.30
2023-03-01T10:32:00.040Z,42.33
2023-03-01T10:34:35.729Z,39.90
2023-03-01T10:37:10.236Z,42.37
2023-03-01T10:39:37.181Z,37.50
2023-03-01T10:42:03.941Z,34.40
2023-03-01T10:44:47.389Z,31.63
2023-03-01T10:47:15.786Z,34.50
2023-03-01T10:49:56.342Z,38.57
2023-03-01T10:52:44.064Z,34.97
2023-03-01T10:55:13.707Z,35.43
2023-03-01T10:57:43.029Z,37.60
2023-03-01T11:00:20.153Z,36.67
2023-03-01T11:02:59.094Z,36.90
2023-03-01T11:05:26.849Z,36.43
2023-03-01T11:07:57.915Z,33.97
2023-03-01T11:10:28.886Z,40.53
2023-03-01T11:13:06.504Z,40.40
2023-03-01T11:15:33.546Z,41.10
2023-03-01T11:18:09.332Z,39.93
2023-03-01T11:20:41.048Z,44.73
2023-03-01T11:23:12.010Z,43.30
2023-03-01T11:25:40.637Z,51.27
2023-03-01T11:28:09.101Z,39.77
2023-03-01T11:31:08.324Z,45.00
2023-03-01T11:33:40.905Z,37.37
2023-03-01T11:36:16.807Z,35.83
2023-03-01T11:38:43.938Z,35.07
2023-03-01T11:41:22.957Z,37.47
2023-03-01T11:43:55.873Z,36.37
2023-03-01T11:46:34.811Z,35.50
2023-03-01T11:49:07.718Z,30.77
2023-03-01T11:51:43.806Z,32.93
2023-03-01T11:54:13.425Z,29.37
2023-03-01T11:56:42.320Z,29.30
2023-03-01T11:59:20.094Z,30.03
2023-03-01T12:02:01.768Z,32.77
2023-03-01T12:04:48.370Z,29.83
2023-03-01T12:07:22.073Z,34.60
2023-03-01T12:10:09.171Z,26.60
2023-03-01T12:13:08.356Z,24.83
2023-03-01T12:16:02.025Z,21.47
2023-03-01T12:18:47.539Z,27.70
2023-03-01T12:21:29.732Z,19.97
2023-03-01T12:24:07.901Z,19.83
2023-03-01T12:26:34.764Z,24.10
2023-03-01T12:29:01.545Z,30.90
2023-03-01T12:31:35.428Z,28.73
2023-03-01T12:34:21.203Z,30.10
2023-03-01T12:36:51.127Z,29.53
2023-03-01T12:39:20.680Z,22.77
2023-03-01T12:41:49.671Z,22.60
2023-03-01T12:44:35.796Z,31.33
2023-03-01T12:47:11.678Z,31.57
2023-03-01T12:49:49.177Z,31.60
2023-03-01T12:52:34.860Z,33.00
2023-03-01T12:55:03.572Z,37.70
2023-03-01T12:57:39.107Z,35.70
2023-03-01T13:00:24.596Z,36.13
2023-03-01T13:02:56.177Z,36.67
2023-03-01T13:05:26.505Z,39.33
2023-03-01T13:08:12.140Z,38.00
2023-03-01T13:10:50.823Z,29.20
2023-03-01T13:13:22.189Z,27.70
2023-03-01T13:15:49.863Z,26.67
2023-03-01T13:18:16.844Z,32.37
2023-03-01T13:20:43.753Z,32.17
2023-03-01T13:23:10.661Z,33.47
2023-03-01T13:25:57.652Z,40.43
2023-03-01T13:28:38.957Z,44.03
2023-03-01T13:31:06.832Z,32.63
2023-03-01T13:33:37.589Z,38.93
2023-03-01T13:36:04.852Z,37.87
2023-03-01T13:38:39.004Z,45.00
2023-03-01T13:41:06.333Z,40.47
2023-03-01T13:43:36.849Z,41.37
2023-03-01T13:46:17.665Z,41.13
2023-03-01T13:48:45.834Z,41.77
2023-03-01T13:51:13.244Z,39.27
2023-03-01T13:53:47.860Z,44.37
2023-03-01T13:56:22.811Z,44.67
2023-03-01T13:58:49.719Z,38.23
2023-03-01T14:01:36.923Z,37.90
2023-03-01T14:04:05.130Z,36.73
2023-03-01T14:06:33.638Z,44.20
2023-03-01T14:09:06.700Z,40.60
2023-03-01T14:11:39.672Z,42.93
2023-03-01T14:14:25.134Z,40.00
2023-03-01T14:16:51.927Z,41.67
2023-03-01T14:19:32.664Z,39.73
2023-03-01T14:22:17.826Z,38.67
2023-03-01T14:24:48.412Z,36.53
2023-03-01T14:27:15.886Z,39.80
2023-03-01T14:29:42.822Z,39.00
2023-03-01T14:32:14.006Z,46.73
2023-03-01T14:34:45.944Z,41.43
2023-03-01T14:37:33.255Z,37.00
2023-03-01T14:40:01.523Z,43.83
2023-03-01T14:42:33.698Z,40.07
2023-03-01T14:45:01.829Z,42.23
2023-03-01T14:47:34.351Z,43.10
2023-03-01T14:50:10.823Z,39.60
2023-03-01T14:52:39.839Z,48.33
2023-03-01T14:55:08.286Z,44.87
2023-03-01T14:57:35.098Z,36.30
2023-03-01T15:00:07.343Z,43.97
2023-03-01T15:02:36.087Z,43.97
2023-03-01T15:05:09.184Z,42.40
2023-03-01T15:07:40.667Z,36.43
2023-03-01T15:10:08.515Z,41.80
2023-03-01T15:12:37.187Z,36.83
2023-03-01T15:15:21.254Z,39.30
2023-03-01T15:17:51.860Z,38.37
2023-03-01T15:20:22.852Z,38.97
2023-03-01T15:22:50.700Z,45.60
2023-03-01T15:25:21.561Z,40.57
2023-03-01T15:27:50.123Z,39.03
2023-03-01T15:30:39.104Z,40.50
2023-03-01T15:33:20.437Z,40.33
2023-03-01T15:35:54.405Z,42.77
2023-03-01T15:38:30.651Z,47.47
2023-03-01T15:40:58.122Z,40.30
2023-03-01T15:43:43.584Z,44.03
2023-03-01T15:46:21.249Z,39.20
2023-03-01T15:48:50.608Z,37.90
2023-03-01T15:51:17.802Z,38.63
2023-03-01T15:53:54.449Z,41.00
2023-03-01T15:56:22.005Z,47.57
2023-03-01T15:58:48.839Z,50.47
2023-03-01T16:01:16.652Z,44.43
2023-03-01T16:03:43.694Z,51.90
2023-03-01T16:06:13.507Z,66.60
2023-03-01T16:08:41.339Z,72.23
2023-03-01T16:11:18.370Z,81.37
2023-03-01T16:13:45.374Z,51.97
2023-03-01T16:16:17.537Z,46.13
2023-03-01T16:18:45.681Z,48.40
2023-03-01T16:21:22.768Z,54.10
2023-03-01T16:23:49.745Z,45.87
2023-03-01T16:26:16.617Z,47.63
2023-03-01T16:28:44.052Z,64.40
2023-03-01T16:31:11.030Z,57.33
2023-03-01T16:33:38.393Z,60.30
2023-03-01T16:36:09.730Z,64.03
2023-03-01T16:38:36.705Z,75.20
2023-03-01T16:41:03.457Z,75.30
2023-03-01T16:43:31.185Z,94.83
2023-03-01T16:45:58.179Z,81.27
2023-03-01T16:48:25.005Z,79.20
2023-03-01T16:50:58.681Z,72.70
2023-03-01T16:53:25.463Z,83.90
2023-03-01T16:55:58.976Z,74.47
2023-03-01T16:58:26.064Z,77.43
2023-03-01T17:00:54.499Z,79.73
2023-03-01T17:03:22.108Z,79.23
2023-03-01T17:05:49.260Z,84.67
2023-03-01T17:08:16.751Z,75.53
2023-03-01T17:10:43.591Z,72.90
2023-03-01T17:13:10.703Z,80.57
2023-03-01T17:15:41.444Z,87.50
2023-03-01T17:18:10.131Z,74.30
2023-03-01T17:20:37.269Z,80.43
2023-03-01T17:23:04.708Z,72.43
2023-03-01T17:25:31.717Z,54.90
2023-03-01T17:27:58.542Z,53.83
2023-03-01T17:30:25.476Z,54.13
2023-03-01T17:32:55.937Z,52.47
2023-03-01T17:35:23.173Z,57.43
2023-03-01T17:37:50.146Z,67.07
2023-03-01T17:40:16.989Z,72.03
2023-03-01T17:42:43.883Z,64.17
2023-03-01T17:45:10.926Z,84.93
2023-03-01T17:47:38.686Z,71.50
2023-03-01T17:50:06.926Z,68.60
2023-03-01T17:52:33.833Z,66.97
2023-03-01T17:55:00.578Z,89.83
2023-03-01T17:57:27.351Z,100.27
2023-03-01T17:59:54.455Z,78.77
2023-03-01T18:02:21.292Z,114.43
2023-03-01T18:04:48.382Z,136.60
2023-03-01T18:07:15.232Z,73.63
2023-03-01T18:09:42.032Z,61.97
2023-03-01T18:12:09.478Z,71.83
2023-03-01T18:14:36.837Z,73.83
2023-03-01T18:17:06.454Z,89.73
2023-03-01T18:19:33.459Z,102.60
2023-03-01T18:22:00.485Z,94.13
2023-03-01T18:24:27.341Z,113.90
2023-03-01T18:26:54.237Z,120.90
2023-03-01T18:29:21.102Z,113.37
2023-03-01T18:31:48.314Z,118.53
2023-03-01T18:34:15.268Z,131.50
2023-03-01T18:36:48.027Z,131.97
2023-03-01T18:39:23.309Z,146.47
2023-03-01T18:41:50.263Z,154.60
2023-03-01T18:44:17.403Z,115.13
2023-03-01T18:46:46.661Z,88.70
2023-03-01T18:49:14.436Z,88.10
2023-03-01T18:51:41.935Z,106.70
2023-03-01T18:54:11.072Z,97.93
2023-03-01T18:56:37.979Z,95.90
2023-03-01T18:59:05.077Z,91.50
2023-03-01T19:01:35.439Z,85.37
2023-03-01T19:04:03.876Z,82.77
2023-03-01T19:06:32.365Z,83.00
2023-03-01T19:08:59.951Z,97.67
2023-03-01T19:11:33.502Z,76.23
2023-03-01T19:14:01.319Z,89.23
2023-03-01T19:16:29.717Z,83.60
2023-03-01T19:18:59.687Z,90.50
2023-03-01T19:21:27.934Z,84.80
2023-03-01T19:23:55.299Z,114.17
2023-03-01T19:26:23.894Z,119.13
2023-03-01T19:28:51.168Z,99.97
2023-03-01T19:31:19.103Z,90.60
2023-03-01T19:33:46.030Z,86.07
2023-03-01T19:36:13.637Z,108.63
2023-03-01T19:38:41.085Z,98.97
2023-03-01T19:41:09.468Z,119.70
2023-03-01T19:43:36.424Z,127.60
2023-03-01T19:46:03.292Z,100.67
2023-03-01T19:48:30.331Z,80.77
2023-03-01T19:50:57.405Z,95.50
2023-03-01T19:53:25.130Z,127.33
2023-03-01T19:55:58.332Z,125.87
2023-03-01T19:58:25.627Z,115.57
2023-03-01T20:00:59.003Z,121.10
2023-03-01T20:03:26.839Z,134.17
2023-03-01T20:05:53.699Z,111.90
2023-03-01T20:08:20.715Z,124.60
2023-03-01T20:10:47.688Z,118.40
2023-03-01T20:13:15.001Z,144.07
2023-03-01T20:15:43.567Z,145.07
2023-03-01T20:18:11.282Z,113.57
2023-03-01T20:20:38.668Z,112.53
2023-03-01T20:23:05.680Z,116.60
2023-03-01T20:25:32.646Z,115.43
2023-03-01T20:27:59.854Z,115.97
2023-03-01T20:30:26.620Z,113.87
2023-03-01T20:32:53.919Z,112.17
2023-03-01T20:35:22.041Z,108.23
2023-03-01T20:37:51.421Z,102.07
2023-03-01T20:40:21.303Z,93.10
2023-03-01T20:42:48.223Z,122.17
2023-03-01T20:45:15.029Z,122.17
2023-03-01T20:47:41.847Z,101.37
2023-03-01T20:50:08.938Z,92.27
2023-03-01T20:52:45.849Z,72.30
2023-03-01T20:55:14.293Z,57.93
2023-03-01T20:57:42.026Z,55.60
2023-03-01T21:00:09.528Z,56.30
2023-03-01T21:02:36.657Z,67.23
2023-03-01T21:05:04.307Z,55.97
2023-03-01T21:07:31.809Z,55.47
2023-03-01T21:09:59.573Z,53.27
2023-03-01T21:12:26.878Z,57.77
2023-03-01T21:14:53.674Z,67.93
2023-03-01T21:17:21.464Z,72.03
2023-03-01T21:19:48.442Z,72.47
2023-03-01T21:22:16.404Z,69.57
2023-03-01T21:24:44.618Z,70.80
2023-03-01T21:27:12.161Z,74.37
2023-03-01T21:29:43.982Z,80.43
2023-03-01T21:32:12.411Z,79.03
2023-03-01T21:34:40.651Z,85.13
2023-03-01T21:37:09.830Z,83.57
2023-03-01T21:39:38.078Z,82.30
2023-03-01T21:42:05.929Z,74.73
2023-03-01T21:44:34.132Z,78.03
2023-03-01T21:47:02.469Z,75.07
2023-03-01T21:49:30.288Z,75.23
2023-03-01T21:51:58.548Z,70.33
2023-03-01T21:54:25.644Z,65.93
2023-03-01T21:56:53.000Z,67.90
2023-03-01T21:59:22.654Z,65.90
2023-03-01T22:01:51.380Z,84.77
2023-03-01T22:04:18.990Z,78.93
2023-03-01T22:06:47.517Z,76.43
2023-03-01T22:09:15.068Z,80.33
2023-03-01T22:11:44.402Z,78.23
2023-03-01T22:14:13.557Z,83.03
2023-03-01T22:16:42.170Z,76.03
2023-03-01T22:19:09.225Z,71.33
2023-03-01T22:21:39.485Z,70.57
2023-03-01T22:24:07.081Z,68.33
2023-03-01T22:26:35.870Z,75.50
2023-03-01T22:29:04.885Z,107.40
2023-03-01T22:31:31.864Z,100.33
2023-03-01T22:33:59.265Z,95.03
2023-03-01T22:36:26.424Z,87.57
2023-03-01T22:38:59.528Z,68.97
2023-03-01T22:41:27.966Z,68.10
2023-03-01T22:43:54.964Z,65.47
2023-03-01T22:46:22.040Z,58.83
2023-03-01T22:48:49.533Z,60.43
2023-03-01T22:51:18.164Z,69.90
2023-03-01T22:53:46.105Z,74.70
2023-03-01T22:56:15.399Z,73.40
2023-03-01T22:58:43.937Z,75.40
2023-03-01T23:01:16.251Z,68.60
2023-03-01T23:03:43.237Z,76.07
2023-03-01T23:06:10.101Z,80.53
2023-03-01T23:08:37.315Z,82.47
2023-03-01T23:11:04.882Z,78.83
2023-03-01T23:13:31.777Z,72.10
2023-03-01T23:15:59.027Z,75.80
2023-03-01T23:18:25.821Z,68.50
2023-03-01T23:20:52.724Z,71.23
2023-03-01T23:23:19.864Z,75.87
2023-03-01T23:25:56.582Z,58.97
2023-03-01T23:28:23.729Z,58.20
2023-03-01T23:30:54.635Z,55.83
2023-03-01T23:33:21.557Z,51.60
2023-03-01T23:35:48.340Z,57.70
2023-03-01T23:38:15.158Z,60.67
2023-03-01T23:40:41.952Z,48.87
2023-03-01T23:43:08.763Z,51.50
2023-03-01T23:45:43.090Z,59.17
2023-03-01T23:48:11.728Z,59.40
2023-03-01T23:50:42.142Z,58.63
2023-03-01T23:53:10.186Z,59.63
2023-03-01T23:55:37.472Z,57.33
2023-03-01T23:58:04.513Z,61.37
